sensor_id;sensor_type;location;lat;lon;timestamp;pressure;altitude;pressure_sealevel;temperature;humidity
44872;BME280;30602;51.060;17.226;2023-12-20T00:00:56;100994.04;;;5.56;100.00
44872;BME280;30602;51.060;17.226;2023-12-20T00:04:33;100989.19;;;5.65;100.00
44872;BME280;30602;51.060;17.226;2023-12-20T00:08:44;101001.77;;;5.64;100.00
44872;BME280;30602;51.060;17.226;2023-12-20T00:12:46;100994.72;;;5.62;100.00
44872;BME280;30602;51.060;17.226;2023-12-20T00:16:36;100981.45;;;5.52;100.00
44872;BME280;30602;51.060;17.226;2023-12-20T00:20:31;100989.97;;;5.60;100.00
44872;BME280;30602;51.060;17.226;2023-12-20T00:24:40;100983.96;;;5.61;100.00
44872;BME280;30602;51.060;17.226;2023-12-20T00:28:24;100994.51;;;5.63;100.00
44872;BME280;30602;51.060;17.226;2023-12-20T00:32:59;100992.66;;;5.50;100.00
44872;BME280;30602;51.060;17.226;2023-12-20T00:36:56;100989.45;;;5.51;100.00
44872;BME280;30602;51.060;17.226;2023-12-20T00:40:50;100987.62;;;5.53;100.00
44872;BME280;30602;51.060;17.226;2023-12-20T00:44:36;100982.88;;;5.53;100.00
44872;BME280;30602;51.060;17.226;2023-12-20T00:48:11;100972.57;;;5.59;100.00
44872;BME280;30602;51.060;17.226;2023-12-20T00:52:06;100976.00;;;5.55;100.00
44872;BME280;30602;51.060;17.226;2023-12-20T00:55:52;100976.36;;;5.57;100.00
44872;BME280;30602;51.060;17.226;2023-12-20T00:59:17;100962.65;;;5.44;100.00
44872;BME280;30602;51.060;17.226;2023-12-20T01:03:53;100980.84;;;5.54;100.00
44872;BME280;30602;51.060;17.226;2023-12-20T01:07:55;100967.48;;;5.56;100.00
44872;BME280;30602;51.060;17.226;2023-12-20T01:11:21;100969.59;;;5.55;100.00
44872;BME280;30602;51.060;17.226;2023-12-20T01:15:03;100965.02;;;5.50;100.00
44872;BME280;30602;51.060;17.226;2023-12-20T01:18:51;100963.08;;;5.51;100.00
44872;BME280;30602;51.060;17.226;2023-12-20T01:22:16;100956.59;;;5.52;100.00
44872;BME280;30602;51.060;17.226;2023-12-20T01:26:35;100959.55;;;5.55;100.00
44872;BME280;30602;51.060;17.226;2023-12-20T01:29:59;100958.28;;;5.57;100.00
44872;BME280;30602;51.060;17.226;2023-12-20T01:33:32;100954.48;;;5.57;100.00
44872;BME280;30602;51.060;17.226;2023-12-20T01:38:01;100948.59;;;5.55;100.00
44872;BME280;30602;51.060;17.226;2023-12-20T01:41:42;100944.52;;;5.50;100.00
44872;BME280;30602;51.060;17.226;2023-12-20T01:45:14;100942.11;;;5.43;100.00
44872;BME280;30602;51.060;17.226;2023-12-20T01:49:26;100941.54;;;5.43;100.00
44872;BME280;30602;51.060;17.226;2023-12-20T01:53:12;100933.37;;;5.41;100.00
44872;BME280;30602;51.060;17.226;2023-12-20T01:57:37;100928.55;;;5.36;100.00
44872;BME280;30602;51.060;17.226;2023-12-20T02:11:58;100914.17;;;5.48;100.00
44872;BME280;30602;51.060;17.226;2023-12-20T02:15:42;100903.30;;;5.52;100.00
44872;BME280;30602;51.060;17.226;2023-12-20T02:23:44;100915.84;;;5.50;100.00
44872;BME280;30602;51.060;17.226;2023-12-20T02:27:36;100906.15;;;5.46;100.00
44872;BME280;30602;51.060;17.226;2023-12-20T02:31:22;100902.98;;;5.41;100.00
44872;BME280;30602;51.060;17.226;2023-12-20T02:34:49;100897.77;;;5.40;100.00
44872;BME280;30602;51.060;17.226;2023-12-20T02:38:36;100898.52;;;5.35;100.00
44872;BME280;30602;51.060;17.226;2023-12-20T02:42:31;100890.03;;;5.36;100.00
44872;BME280;30602;51.060;17.226;2023-12-20T02:46:10;100901.40;;;5.34;100.00
44872;BME280;30602;51.060;17.226;2023-12-20T02:49:55;100896.88;;;5.33;100.00
44872;BME280;30602;51.060;17.226;2023-12-20T02:53:53;100891.41;;;5.35;100.00
44872;BME280;30602;51.060;17.226;2023-12-20T02:57:18;100887.87;;;5.41;100.00
44872;BME280;30602;51.060;17.226;2023-12-20T03:00:51;100876.57;;;5.33;100.00
44872;BME280;30602;51.060;17.226;2023-12-20T03:04:46;100870.14;;;5.38;100.00
44872;BME280;30602;51.060;17.226;2023-12-20T03:08:29;100861.88;;;5.33;100.00
44872;BME280;30602;51.060;17.226;2023-12-20T03:12:16;100872.41;;;5.34;100.00
44872;BME280;30602;51.060;17.226;2023-12-20T03:16:01;100871.63;;;5.34;100.00
44872;BME280;30602;51.060;17.226;2023-12-20T03:19:23;100875.10;;;5.30;100.00
44872;BME280;30602;51.060;17.226;2023-12-20T03:23:42;100875.93;;;5.24;100.00
44872;BME280;30602;51.060;17.226;2023-12-20T03:27:07;100874.53;;;5.23;100.00
44872;BME280;30602;51.060;17.226;2023-12-20T03:31:03;100874.02;;;5.23;100.00
44872;BME280;30602;51.060;17.226;2023-12-20T03:35:39;100870.31;;;5.31;100.00
44872;BME280;30602;51.060;17.226;2023-12-20T03:39:45;100872.69;;;5.32;100.00
44872;BME280;30602;51.060;17.226;2023-12-20T03:44:09;100873.95;;;5.35;100.00
44872;BME280;30602;51.060;17.226;2023-12-20T03:48:36;100884.41;;;5.30;100.00
44872;BME280;30602;51.060;17.226;2023-12-20T03:52:13;100884.18;;;5.25;100.00
44872;BME280;30602;51.060;17.226;2023-12-20T03:55:35;100878.11;;;5.20;100.00
44872;BME280;30602;51.060;17.226;2023-12-20T03:58:59;100881.08;;;5.09;100.00
44872;BME280;30602;51.060;17.226;2023-12-20T04:02:26;100879.74;;;5.07;100.00
44872;BME280;30602;51.060;17.226;2023-12-20T04:06:02;100880.80;;;5.05;100.00
44872;BME280;30602;51.060;17.226;2023-12-20T04:09:37;100883.44;;;5.05;100.00
44872;BME280;30602;51.060;17.226;2023-12-20T04:13:22;100887.11;;;4.97;100.00
44872;BME280;30602;51.060;17.226;2023-12-20T04:17:06;100887.79;;;4.96;100.00
44872;BME280;30602;51.060;17.226;2023-12-20T04:20:59;100887.02;;;4.96;100.00
44872;BME280;30602;51.060;17.226;2023-12-20T04:24:44;100887.44;;;5.02;100.00
44872;BME280;30602;51.060;17.226;2023-12-20T04:29:14;100883.51;;;5.01;100.00
44872;BME280;30602;51.060;17.226;2023-12-20T04:32:37;100884.05;;;4.91;100.00
44872;BME280;30602;51.060;17.226;2023-12-20T04:36:25;100879.00;;;4.96;100.00
44872;BME280;30602;51.060;17.226;2023-12-20T04:40:15;100880.08;;;4.93;100.00
44872;BME280;30602;51.060;17.226;2023-12-20T04:43:54;100884.40;;;4.89;100.00
44872;BME280;30602;51.060;17.226;2023-12-20T04:47:18;100883.75;;;4.88;100.00
44872;BME280;30602;51.060;17.226;2023-12-20T04:51:00;100880.52;;;4.71;100.00
44872;BME280;30602;51.060;17.226;2023-12-20T04:54:46;100879.45;;;4.75;100.00
44872;BME280;30602;51.060;17.226;2023-12-20T04:58:10;100874.02;;;4.63;100.00
44872;BME280;30602;51.060;17.226;2023-12-20T05:01:34;100877.48;;;4.58;100.00
44872;BME280;30602;51.060;17.226;2023-12-20T05:06:30;100874.09;;;4.68;100.00
44872;BME280;30602;51.060;17.226;2023-12-20T05:10:04;100866.38;;;4.72;100.00
44872;BME280;30602;51.060;17.226;2023-12-20T05:13:26;100864.77;;;4.69;100.00
44872;BME280;30602;51.060;17.226;2023-12-20T05:17:10;100864.99;;;4.61;100.00
44872;BME280;30602;51.060;17.226;2023-12-20T05:21:14;100863.42;;;4.52;100.00
44872;BME280;30602;51.060;17.226;2023-12-20T05:25:07;100865.66;;;4.53;100.00
44872;BME280;30602;51.060;17.226;2023-12-20T05:28:49;100864.52;;;4.52;100.00
44872;BME280;30602;51.060;17.226;2023-12-20T05:32:44;100871.09;;;4.54;100.00
44872;BME280;30602;51.060;17.226;2023-12-20T05:37:10;100875.54;;;4.51;100.00
44872;BME280;30602;51.060;17.226;2023-12-20T05:43:23;100879.93;;;4.49;100.00
44872;BME280;30602;51.060;17.226;2023-12-20T05:47:44;100880.91;;;4.57;100.00
44872;BME280;30602;51.060;17.226;2023-12-20T05:51:35;100881.95;;;4.66;100.00
44872;BME280;30602;51.060;17.226;2023-12-20T05:55:19;100874.08;;;4.66;100.00
44872;BME280;30602;51.060;17.226;2023-12-20T06:02:46;100875.28;;;4.63;100.00
44872;BME280;30602;51.060;17.226;2023-12-20T06:06:44;100854.89;;;4.54;100.00
44872;BME280;30602;51.060;17.226;2023-12-20T06:10:25;100872.45;;;4.61;100.00
44872;BME280;30602;51.060;17.226;2023-12-20T06:14:00;100857.81;;;4.53;100.00
44872;BME280;30602;51.060;17.226;2023-12-20T06:18:04;100864.36;;;4.56;100.00
44872;BME280;30602;51.060;17.226;2023-12-20T06:21:25;100854.00;;;4.45;100.00
44872;BME280;30602;51.060;17.226;2023-12-20T06:25:23;100872.80;;;4.53;100.00
44872;BME280;30602;51.060;17.226;2023-12-20T06:29:39;100870.25;;;4.54;100.00
44872;BME280;30602;51.060;17.226;2023-12-20T06:33:36;100867.30;;;4.53;100.00
44872;BME280;30602;51.060;17.226;2023-12-20T06:37:35;100868.55;;;4.60;100.00
44872;BME280;30602;51.060;17.226;2023-12-20T06:41:13;100870.12;;;4.65;100.00
44872;BME280;30602;51.060;17.226;2023-12-20T06:44:45;100877.09;;;4.63;100.00
44872;BME280;30602;51.060;17.226;2023-12-20T06:48:27;100880.08;;;4.59;100.00
44872;BME280;30602;51.060;17.226;2023-12-20T06:52:02;100882.55;;;4.61;100.00
44872;BME280;30602;51.060;17.226;2023-12-20T06:56:13;100883.41;;;4.65;100.00
44872;BME280;30602;51.060;17.226;2023-12-20T06:59:49;100886.65;;;4.59;100.00
44872;BME280;30602;51.060;17.226;2023-12-20T07:03:30;100887.14;;;4.50;100.00
44872;BME280;30602;51.060;17.226;2023-12-20T07:07:25;100888.84;;;4.53;100.00
44872;BME280;30602;51.060;17.226;2023-12-20T07:11:00;100886.10;;;4.55;100.00
44872;BME280;30602;51.060;17.226;2023-12-20T07:14:47;100870.34;;;4.43;100.00
44872;BME280;30602;51.060;17.226;2023-12-20T07:18:33;100890.41;;;4.47;100.00
44872;BME280;30602;51.060;17.226;2023-12-20T07:22:09;100894.94;;;4.51;100.00
44872;BME280;30602;51.060;17.226;2023-12-20T07:26:00;100897.74;;;4.54;100.00
44872;BME280;30602;51.060;17.226;2023-12-20T07:29:31;100893.56;;;4.60;100.00
44872;BME280;30602;51.060;17.226;2023-12-20T07:32:53;100900.05;;;4.63;100.00
44872;BME280;30602;51.060;17.226;2023-12-20T07:36:36;100897.30;;;4.61;100.00
44872;BME280;30602;51.060;17.226;2023-12-20T07:40:10;100894.98;;;4.56;100.00
44872;BME280;30602;51.060;17.226;2023-12-20T07:43:34;100900.88;;;4.55;100.00
44872;BME280;30602;51.060;17.226;2023-12-20T07:47:33;100905.88;;;4.56;100.00
44872;BME280;30602;51.060;17.226;2023-12-20T07:51:17;100903.26;;;4.54;100.00
44872;BME280;30602;51.060;17.226;2023-12-20T07:55:30;100909.53;;;4.57;100.00
44872;BME280;30602;51.060;17.226;2023-12-20T07:58:55;100906.41;;;4.56;100.00
44872;BME280;30602;51.060;17.226;2023-12-20T08:02:36;100910.83;;;4.54;100.00
44872;BME280;30602;51.060;17.226;2023-12-20T08:06:31;100912.95;;;4.52;100.00
44872;BME280;30602;51.060;17.226;2023-12-20T08:10:04;100912.98;;;4.54;100.00
44872;BME280;30602;51.060;17.226;2023-12-20T08:13:27;100904.16;;;4.61;100.00
44872;BME280;30602;51.060;17.226;2023-12-20T08:17:10;100888.34;;;4.49;100.00
44872;BME280;30602;51.060;17.226;2023-12-20T08:20:58;100911.96;;;4.56;100.00
44872;BME280;30602;51.060;17.226;2023-12-20T08:24:53;100908.75;;;4.54;100.00
44872;BME280;30602;51.060;17.226;2023-12-20T08:28:42;100907.16;;;4.52;100.00
44872;BME280;30602;51.060;17.226;2023-12-20T08:32:34;100913.43;;;4.52;100.00
44872;BME280;30602;51.060;17.226;2023-12-20T08:36:05;100917.18;;;4.47;100.00
44872;BME280;30602;51.060;17.226;2023-12-20T08:39:29;100912.34;;;4.49;100.00
44872;BME280;30602;51.060;17.226;2023-12-20T08:46:44;100926.70;;;4.51;100.00
44872;BME280;30602;51.060;17.226;2023-12-20T08:50:04;100931.55;;;4.47;100.00
44872;BME280;30602;51.060;17.226;2023-12-20T08:53:28;100938.41;;;4.75;100.00
44872;BME280;30602;51.060;17.226;2023-12-20T08:56:53;100935.07;;;4.76;100.00
44872;BME280;30602;51.060;17.226;2023-12-20T09:00:18;100929.35;;;4.68;100.00
44872;BME280;30602;51.060;17.226;2023-12-20T09:04:45;100935.11;;;4.73;100.00
44872;BME280;30602;51.060;17.226;2023-12-20T09:08:51;100938.45;;;4.69;100.00
44872;BME280;30602;51.060;17.226;2023-12-20T09:12:34;100931.41;;;4.65;100.00
44872;BME280;30602;51.060;17.226;2023-12-20T09:15:57;100938.71;;;4.52;100.00
44872;BME280;30602;51.060;17.226;2023-12-20T09:19:49;100936.50;;;4.55;100.00
44872;BME280;30602;51.060;17.226;2023-12-20T09:23:13;100936.25;;;4.57;100.00
44872;BME280;30602;51.060;17.226;2023-12-20T09:26:45;100946.72;;;4.64;100.00
44872;BME280;30602;51.060;17.226;2023-12-20T09:30:34;100949.80;;;4.63;100.00
44872;BME280;30602;51.060;17.226;2023-12-20T09:34:32;100948.24;;;4.61;100.00
44872;BME280;30602;51.060;17.226;2023-12-20T09:37:56;100948.55;;;4.66;100.00
44872;BME280;30602;51.060;17.226;2023-12-20T09:41:19;100942.70;;;4.65;100.00
44872;BME280;30602;51.060;17.226;2023-12-20T09:45:03;100952.27;;;4.62;100.00
44872;BME280;30602;51.060;17.226;2023-12-20T09:48:27;100944.70;;;4.65;100.00
44872;BME280;30602;51.060;17.226;2023-12-20T09:52:36;100944.70;;;4.70;100.00
44872;BME280;30602;51.060;17.226;2023-12-20T09:56:05;100934.54;;;4.65;100.00
44872;BME280;30602;51.060;17.226;2023-12-20T09:59:29;100928.91;;;4.76;100.00
44872;BME280;30602;51.060;17.226;2023-12-20T10:03:04;100914.79;;;4.75;100.00
44872;BME280;30602;51.060;17.226;2023-12-20T10:07:21;100921.48;;;4.80;100.00
44872;BME280;30602;51.060;17.226;2023-12-20T10:10:49;100912.95;;;4.80;100.00
44872;BME280;30602;51.060;17.226;2023-12-20T10:14:11;100916.18;;;4.82;100.00
44872;BME280;30602;51.060;17.226;2023-12-20T10:18:05;100918.31;;;4.84;100.00
44872;BME280;30602;51.060;17.226;2023-12-20T10:21:30;100917.74;;;5.00;100.00
44872;BME280;30602;51.060;17.226;2023-12-20T10:24:51;100913.58;;;4.93;100.00
44872;BME280;30602;51.060;17.226;2023-12-20T10:28:13;100912.11;;;5.05;100.00
44872;BME280;30602;51.060;17.226;2023-12-20T10:31:50;100922.78;;;4.95;100.00
44872;BME280;30602;51.060;17.226;2023-12-20T10:35:57;100918.05;;;4.91;100.00
44872;BME280;30602;51.060;17.226;2023-12-20T10:39:29;100909.34;;;4.86;100.00
44872;BME280;30602;51.060;17.226;2023-12-20T10:42:51;100915.20;;;4.74;100.00
44872;BME280;30602;51.060;17.226;2023-12-20T10:46:10;100918.32;;;4.81;100.00
44872;BME280;30602;51.060;17.226;2023-12-20T10:49:32;100926.59;;;4.83;100.00
44872;BME280;30602;51.060;17.226;2023-12-20T10:53:16;100925.65;;;4.84;100.00
44872;BME280;30602;51.060;17.226;2023-12-20T10:57:36;100928.92;;;4.90;100.00
44872;BME280;30602;51.060;17.226;2023-12-20T11:01:03;100919.09;;;4.83;100.00
44872;BME280;30602;51.060;17.226;2023-12-20T11:04:31;100911.58;;;4.79;100.00
44872;BME280;30602;51.060;17.226;2023-12-20T11:12:42;100898.52;;;5.17;100.00
44872;BME280;30602;51.060;17.226;2023-12-20T11:16:31;100895.16;;;5.17;100.00
44872;BME280;30602;51.060;17.226;2023-12-20T11:20:06;100887.15;;;5.24;100.00
44872;BME280;30602;51.060;17.226;2023-12-20T11:24:02;100891.23;;;5.24;100.00
44872;BME280;30602;51.060;17.226;2023-12-20T11:27:26;100883.75;;;5.27;100.00
44872;BME280;30602;51.060;17.226;2023-12-20T11:31:39;100877.76;;;5.26;100.00
44872;BME280;30602;51.060;17.226;2023-12-20T11:35:16;100876.53;;;5.52;100.00
44872;BME280;30602;51.060;17.226;2023-12-20T11:38:59;100868.50;;;5.55;100.00
44872;BME280;30602;51.060;17.226;2023-12-20T11:42:21;100870.43;;;5.61;100.00
44872;BME280;30602;51.060;17.226;2023-12-20T11:45:49;100856.70;;;5.68;100.00
44872;BME280;30602;51.060;17.226;2023-12-20T11:49:38;100848.84;;;5.67;100.00
44872;BME280;30602;51.060;17.226;2023-12-20T11:53:22;100844.27;;;5.86;100.00
44872;BME280;30602;51.060;17.226;2023-12-20T11:56:41;100832.02;;;6.03;99.31
44872;BME280;30602;51.060;17.226;2023-12-20T12:00:06;100817.99;;;6.08;99.10
44872;BME280;30602;51.060;17.226;2023-12-20T12:04:03;100821.93;;;6.06;99.91
44872;BME280;30602;51.060;17.226;2023-12-20T12:07:24;100821.73;;;6.05;97.90
44872;BME280;30602;51.060;17.226;2023-12-20T12:10:45;100818.81;;;6.07;97.11
44872;BME280;30602;51.060;17.226;2023-12-20T12:14:26;100811.91;;;6.04;97.30
44872;BME280;30602;51.060;17.226;2023-12-20T12:17:55;100802.68;;;6.04;97.22
44872;BME280;30602;51.060;17.226;2023-12-20T12:22:13;100798.00;;;5.97;97.07
44872;BME280;30602;51.060;17.226;2023-12-20T12:25:37;100780.70;;;5.89;97.30
44872;BME280;30602;51.060;17.226;2023-12-20T12:29:09;100788.55;;;5.91;97.70
44872;BME280;30602;51.060;17.226;2023-12-20T12:33:00;100776.20;;;5.87;96.89
44872;BME280;30602;51.060;17.226;2023-12-20T12:37:29;100770.91;;;5.87;96.16
44872;BME280;30602;51.060;17.226;2023-12-20T12:41:58;100773.86;;;5.99;97.24
44872;BME280;30602;51.060;17.226;2023-12-20T12:45:16;100767.89;;;6.00;95.94
44872;BME280;30602;51.060;17.226;2023-12-20T12:49:32;100764.31;;;5.96;94.96
44872;BME280;30602;51.060;17.226;2023-12-20T12:52:52;100759.44;;;5.95;95.40
44872;BME280;30602;51.060;17.226;2023-12-20T12:56:38;100761.34;;;5.84;96.26
44872;BME280;30602;51.060;17.226;2023-12-20T13:00:24;100756.34;;;5.83;95.43
44872;BME280;30602;51.060;17.226;2023-12-20T13:04:07;100763.68;;;5.79;97.16
44872;BME280;30602;51.060;17.226;2023-12-20T13:07:39;100764.85;;;5.76;94.27
44872;BME280;30602;51.060;17.226;2023-12-20T13:11:04;100769.48;;;5.72;95.47
44872;BME280;30602;51.060;17.226;2023-12-20T13:14:24;100771.79;;;5.73;95.85
44872;BME280;30602;51.060;17.226;2023-12-20T13:17:44;100761.88;;;5.74;95.60
44872;BME280;30602;51.060;17.226;2023-12-20T13:21:09;100761.18;;;5.82;93.60
44872;BME280;30602;51.060;17.226;2023-12-20T13:24:34;100760.79;;;5.95;92.43
44872;BME280;30602;51.060;17.226;2023-12-20T13:28:19;100754.47;;;5.96;92.41
44872;BME280;30602;51.060;17.226;2023-12-20T13:32:03;100756.76;;;6.01;92.48
44872;BME280;30602;51.060;17.226;2023-12-20T13:35:35;100754.71;;;5.98;91.75
44872;BME280;30602;51.060;17.226;2023-12-20T13:39:32;100756.24;;;5.93;91.95
44872;BME280;30602;51.060;17.226;2023-12-20T13:43:41;100752.20;;;5.92;91.03
44872;BME280;30602;51.060;17.226;2023-12-20T13:48:11;100746.05;;;5.93;90.68
44872;BME280;30602;51.060;17.226;2023-12-20T13:55:49;100726.12;;;5.91;89.15
44872;BME280;30602;51.060;17.226;2023-12-20T13:59:24;100729.41;;;5.98;88.51
44872;BME280;30602;51.060;17.226;2023-12-20T14:02:47;100736.98;;;5.93;89.50
44872;BME280;30602;51.060;17.226;2023-12-20T14:06:14;100736.54;;;6.03;89.08
44872;BME280;30602;51.060;17.226;2023-12-20T14:09:42;100738.68;;;6.12;87.79
44872;BME280;30602;51.060;17.226;2023-12-20T14:13:08;100742.23;;;6.06;87.55
44872;BME280;30602;51.060;17.226;2023-12-20T14:17:07;100737.99;;;5.98;88.63
44872;BME280;30602;51.060;17.226;2023-12-20T14:21:04;100730.04;;;5.95;89.76
44872;BME280;30602;51.060;17.226;2023-12-20T14:24:39;100725.91;;;5.93;89.20
44872;BME280;30602;51.060;17.226;2023-12-20T14:28:00;100728.54;;;5.90;88.71
44872;BME280;30602;51.060;17.226;2023-12-20T14:31:42;100723.38;;;5.83;89.49
44872;BME280;30602;51.060;17.226;2023-12-20T14:35:07;100721.44;;;5.81;88.13
44872;BME280;30602;51.060;17.226;2023-12-20T14:38:35;100718.80;;;5.82;89.04
44872;BME280;30602;51.060;17.226;2023-12-20T14:41:59;100716.98;;;5.83;88.62
44872;BME280;30602;51.060;17.226;2023-12-20T14:45:23;100713.31;;;5.79;87.45
44872;BME280;30602;51.060;17.226;2023-12-20T14:48:48;100723.26;;;5.80;88.29
44872;BME280;30602;51.060;17.226;2023-12-20T14:56:33;100711.19;;;5.93;88.22
44872;BME280;30602;51.060;17.226;2023-12-20T14:59:55;100703.62;;;5.84;88.09
44872;BME280;30602;51.060;17.226;2023-12-20T15:03:39;100698.73;;;5.79;88.56
44872;BME280;30602;51.060;17.226;2023-12-20T15:11:11;100697.22;;;5.62;89.60
44872;BME280;30602;51.060;17.226;2023-12-20T15:14:36;100690.66;;;5.56;88.28
44872;BME280;30602;51.060;17.226;2023-12-20T15:18:34;100694.13;;;5.46;88.34
44872;BME280;30602;51.060;17.226;2023-12-20T15:22:24;100690.55;;;5.45;88.27
44872;BME280;30602;51.060;17.226;2023-12-20T15:26:28;100670.60;;;5.43;87.68
44872;BME280;30602;51.060;17.226;2023-12-20T15:30:24;100678.80;;;5.51;87.60
44872;BME280;30602;51.060;17.226;2023-12-20T15:33:44;100675.41;;;5.48;86.85
44872;BME280;30602;51.060;17.226;2023-12-20T15:37:27;100671.99;;;5.50;86.66
44872;BME280;30602;51.060;17.226;2023-12-20T15:41:02;100664.10;;;5.64;86.08
44872;BME280;30602;51.060;17.226;2023-12-20T15:44:49;100667.25;;;5.63;85.24
44872;BME280;30602;51.060;17.226;2023-12-20T15:48:50;100657.51;;;5.56;85.19
44872;BME280;30602;51.060;17.226;2023-12-20T15:52:44;100661.41;;;5.45;85.65
44872;BME280;30602;51.060;17.226;2023-12-20T15:56:21;100658.70;;;5.37;86.28
44872;BME280;30602;51.060;17.226;2023-12-20T16:00:13;100657.52;;;5.39;85.82
44872;BME280;30602;51.060;17.226;2023-12-20T16:04:14;100658.31;;;5.43;85.10
44872;BME280;30602;51.060;17.226;2023-12-20T16:07:34;100665.27;;;5.41;85.92
44872;BME280;30602;51.060;17.226;2023-12-20T16:10:53;100659.89;;;5.32;86.73
44872;BME280;30602;51.060;17.226;2023-12-20T16:14:56;100647.42;;;5.31;88.10
44872;BME280;30602;51.060;17.226;2023-12-20T16:18:37;100642.17;;;5.25;89.57
44872;BME280;30602;51.060;17.226;2023-12-20T16:23:00;100634.16;;;5.16;91.13
44872;BME280;30602;51.060;17.226;2023-12-20T16:27:01;100623.82;;;5.37;90.86
44872;BME280;30602;51.060;17.226;2023-12-20T16:30:44;100633.45;;;5.31;91.81
44872;BME280;30602;51.060;17.226;2023-12-20T16:36:14;100639.85;;;5.27;92.26
44872;BME280;30602;51.060;17.226;2023-12-20T16:39:42;100642.83;;;5.30;92.24
44872;BME280;30602;51.060;17.226;2023-12-20T16:43:03;100644.11;;;5.17;93.01
44872;BME280;30602;51.060;17.226;2023-12-20T16:47:13;100636.24;;;5.07;93.21
44872;BME280;30602;51.060;17.226;2023-12-20T16:50:59;100634.06;;;5.03;93.11
44872;BME280;30602;51.060;17.226;2023-12-20T16:55:10;100630.85;;;5.08;93.21
44872;BME280;30602;51.060;17.226;2023-12-20T16:58:54;100630.29;;;5.03;93.00
44872;BME280;30602;51.060;17.226;2023-12-20T17:02:20;100635.50;;;4.97;93.40
44872;BME280;30602;51.060;17.226;2023-12-20T17:06:26;100636.21;;;5.00;93.51
44872;BME280;30602;51.060;17.226;2023-12-20T17:10:22;100632.70;;;5.08;93.83
44872;BME280;30602;51.060;17.226;2023-12-20T17:13:51;100629.27;;;5.12;93.93
44872;BME280;30602;51.060;17.226;2023-12-20T17:17:27;100629.43;;;5.09;93.92
44872;BME280;30602;51.060;17.226;2023-12-20T17:21:11;100630.12;;;5.09;93.81
44872;BME280;30602;51.060;17.226;2023-12-20T17:25:10;100628.73;;;5.05;93.67
44872;BME280;30602;51.060;17.226;2023-12-20T17:28:34;100625.31;;;4.91;94.19
44872;BME280;30602;51.060;17.226;2023-12-20T17:33:04;100627.70;;;4.88;94.24
44872;BME280;30602;51.060;17.226;2023-12-20T17:37:32;100625.39;;;4.87;94.12
44872;BME280;30602;51.060;17.226;2023-12-20T17:41:16;100627.09;;;4.83;92.90
44872;BME280;30602;51.060;17.226;2023-12-20T17:45:04;100631.36;;;4.83;92.48
44872;BME280;30602;51.060;17.226;2023-12-20T17:48:46;100633.07;;;4.93;91.16
44872;BME280;30602;51.060;17.226;2023-12-20T17:52:40;100635.34;;;5.06;90.23
44872;BME280;30602;51.060;17.226;2023-12-20T17:56:58;100631.56;;;5.36;88.22
44872;BME280;30602;51.060;17.226;2023-12-20T18:01:47;100631.78;;;5.51;86.88
44872;BME280;30602;51.060;17.226;2023-12-20T18:05:11;100619.48;;;5.44;86.08
44872;BME280;30602;51.060;17.226;2023-12-20T18:09:01;100628.23;;;5.43;85.49
44872;BME280;30602;51.060;17.226;2023-12-20T18:13:01;100634.74;;;5.49;84.63
44872;BME280;30602;51.060;17.226;2023-12-20T18:16:44;100623.99;;;5.52;83.76
44872;BME280;30602;51.060;17.226;2023-12-20T18:20:09;100634.48;;;5.50;84.51
44872;BME280;30602;51.060;17.226;2023-12-20T18:24:03;100636.85;;;5.51;84.43
44872;BME280;30602;51.060;17.226;2023-12-20T18:27:37;100634.73;;;5.53;84.11
44872;BME280;30602;51.060;17.226;2023-12-20T18:31:31;100631.42;;;5.57;83.54
44872;BME280;30602;51.060;17.226;2023-12-20T18:35:46;100641.84;;;5.68;82.39
44872;BME280;30602;51.060;17.226;2023-12-20T18:39:54;100650.63;;;5.78;81.93
44872;BME280;30602;51.060;17.226;2023-12-20T18:43:57;100666.92;;;5.93;82.05
44872;BME280;30602;51.060;17.226;2023-12-20T18:48:06;100667.87;;;5.92;81.37
44872;BME280;30602;51.060;17.226;2023-12-20T18:51:46;100678.79;;;5.84;81.99
44872;BME280;30602;51.060;17.226;2023-12-20T18:59:56;100692.07;;;5.75;82.19
44872;BME280;30602;51.060;17.226;2023-12-20T19:03:38;100710.34;;;5.75;82.75
44872;BME280;30602;51.060;17.226;2023-12-20T19:08:04;100714.99;;;5.75;82.98
44872;BME280;30602;51.060;17.226;2023-12-20T19:12:05;100705.30;;;5.62;84.43
44872;BME280;30602;51.060;17.226;2023-12-20T19:16:37;100718.05;;;5.63;85.60
44872;BME280;30602;51.060;17.226;2023-12-20T19:19:59;100709.73;;;5.57;86.33
44872;BME280;30602;51.060;17.226;2023-12-20T19:23:24;100706.21;;;5.52;87.03
44872;BME280;30602;51.060;17.226;2023-12-20T19:27:10;100710.18;;;5.56;87.37
44872;BME280;30602;51.060;17.226;2023-12-20T19:30:52;100708.67;;;5.51;87.75
44872;BME280;30602;51.060;17.226;2023-12-20T19:34:44;100710.94;;;5.47;88.60
44872;BME280;30602;51.060;17.226;2023-12-20T19:38:08;100714.99;;;5.37;88.30
44872;BME280;30602;51.060;17.226;2023-12-20T19:41:52;100719.96;;;5.23;89.48
44872;BME280;30602;51.060;17.226;2023-12-20T19:46:01;100720.45;;;5.12;90.54
44872;BME280;30602;51.060;17.226;2023-12-20T19:49:20;100731.76;;;5.06;91.15
44872;BME280;30602;51.060;17.226;2023-12-20T19:53:03;100719.96;;;4.91;92.35
44872;BME280;30602;51.060;17.226;2023-12-20T19:56:50;100734.67;;;4.92;93.07
44872;BME280;30602;51.060;17.226;2023-12-20T20:00:38;100713.54;;;4.77;93.87
44872;BME280;30602;51.060;17.226;2023-12-20T20:05:07;100723.86;;;4.83;94.30
44872;BME280;30602;51.060;17.226;2023-12-20T20:09:04;100726.74;;;4.83;94.83
44872;BME280;30602;51.060;17.226;2023-12-20T20:13:42;100722.69;;;4.84;95.36